createdAt,value
2017-08-21T00:00:44.292Z,-0.9
2017-08-21T00:01:43.371Z,-1
2017-08-21T00:02:42.436Z,-0.9
2017-08-21T00:03:42.133Z,-0.9
2017-08-21T00:04:41.206Z,-0.9
2017-08-21T00:05:40.423Z,-0.9
2017-08-21T00:06:39.628Z,-0.9
2017-08-21T00:07:38.700Z,-0.9
2017-08-21T00:09:36.812Z,-0.9
2017-08-21T00:10:37.007Z,-1
2017-08-21T00:12:35.080Z,-0.9
2017-08-21T00:13:34.544Z,-1
2017-08-21T00:15:32.896Z,-0.9
2017-08-21T00:16:31.956Z,-0.9
2017-08-21T00:17:31.656Z,-0.9
2017-08-21T00:18:30.737Z,-0.9
2017-08-21T00:19:29.809Z,-0.9
2017-08-21T00:20:29.380Z,-0.9
2017-08-21T00:21:28.453Z,-0.9
2017-08-21T00:23:27.031Z,-0.8
2017-08-21T00:24:26.613Z,-0.8
2017-08-21T00:27:23.847Z,-0.9
2017-08-21T00:28:23.455Z,-0.9
2017-08-21T00:29:22.525Z,-0.9
2017-08-21T00:30:21.721Z,-0.9
2017-08-21T00:31:21.426Z,-0.9
2017-08-21T00:32:20.615Z,-0.9
2017-08-21T00:33:19.814Z,-0.9
2017-08-21T00:34:19.003Z,-0.8
2017-08-21T00:37:16.474Z,-0.9
2017-08-21T00:38:16.167Z,-0.9
2017-08-21T00:40:14.239Z,-0.9
2017-08-21T00:42:12.810Z,-0.9
2017-08-21T00:43:12.007Z,-0.9
2017-08-21T00:44:12.161Z,-0.9
2017-08-21T00:45:10.847Z,-0.9
2017-08-21T00:46:10.052Z,-0.9
2017-08-21T00:47:09.123Z,-0.8
2017-08-21T00:48:08.203Z,-0.7
2017-08-21T00:49:07.891Z,-0.7
2017-08-21T00:51:06.352Z,-0.7
2017-08-21T00:52:05.419Z,-0.8
2017-08-21T00:53:04.503Z,-0.7
2017-08-21T00:54:03.847Z,-0.7
2017-08-21T00:55:03.193Z,-0.8
2017-08-21T00:56:02.388Z,-0.7
2017-08-21T00:57:02.106Z,-0.7
2017-08-21T00:57:32.615Z,-0.7
2017-08-21T00:58:03.120Z,-0.7
2017-08-21T00:59:00.318Z,-0.8
2017-08-21T00:59:59.506Z,-0.9
2017-08-21T01:01:58.000Z,-0.9
2017-08-21T01:02:57.203Z,-0.9
2017-08-21T01:04:55.544Z,-0.8
2017-08-21T01:06:54.122Z,-0.7
2017-08-21T01:09:52.086Z,-0.8
2017-08-21T01:11:50.436Z,-0.7
2017-08-21T01:12:49.899Z,-0.7
2017-08-21T01:14:48.474Z,-0.7
2017-08-21T01:15:47.672Z,-0.7
2017-08-21T01:16:46.760Z,-0.7
2017-08-21T01:17:45.951Z,-0.8
2017-08-21T01:18:45.660Z,-0.8
2017-08-21T01:19:44.855Z,-0.8
2017-08-21T01:20:43.860Z,-0.7
2017-08-21T01:21:42.929Z,-0.8
2017-08-21T01:22:42.620Z,-0.8
2017-08-21T01:23:41.816Z,-0.8
2017-08-21T01:24:40.919Z,-0.8
2017-08-21T01:25:11.307Z,-0.8
2017-08-21T01:25:41.806Z,-0.9
2017-08-21T01:26:12.316Z,-0.9
2017-08-21T01:27:38.582Z,-0.9
2017-08-21T01:28:09.084Z,-0.9
2017-08-21T01:29:36.841Z,-0.9
2017-08-21T01:30:36.414Z,-0.9
2017-08-21T01:32:34.640Z,-0.9
2017-08-21T01:34:33.236Z,-0.8
2017-08-21T01:35:32.932Z,-0.9
2017-08-21T01:36:31.658Z,-1
2017-08-21T01:43:26.713Z,-0.9
2017-08-21T01:44:25.914Z,-0.8
2017-08-21T01:46:24.497Z,-1
2017-08-21T01:47:23.719Z,-0.9
2017-08-21T01:48:22.789Z,-0.9
2017-08-21T01:49:21.980Z,-0.9
2017-08-21T01:53:19.344Z,-0.8
2017-08-21T01:54:18.541Z,-0.8
2017-08-21T01:55:17.614Z,-0.8
2017-08-21T01:56:16.813Z,-0.8
2017-08-21T01:57:16.375Z,-1
2017-08-21T01:58:15.445Z,-1
2017-08-21T01:59:14.632Z,-0.9
2017-08-21T02:00:13.826Z,-1
2017-08-21T02:02:12.402Z,-0.9
2017-08-21T02:03:11.599Z,-0.8
2017-08-21T02:04:10.439Z,-1
2017-08-21T02:05:09.903Z,-1
2017-08-21T02:07:08.749Z,-0.9
2017-08-21T02:08:07.938Z,-1
2017-08-21T02:09:06.997Z,-1
2017-08-21T02:10:05.947Z,-0.9
2017-08-21T02:11:05.644Z,-0.9
2017-08-21T02:14:03.487Z,-0.9
2017-08-21T02:17:00.832Z,-0.9
2017-08-21T02:18:00.425Z,-0.9
2017-08-21T02:19:59.010Z,-1
2017-08-21T02:20:58.780Z,-1.1
2017-08-21T02:21:57.450Z,-1.1
2017-08-21T02:22:56.530Z,-1
2017-08-21T02:23:55.720Z,-1
2017-08-21T02:24:54.799Z,-1
2017-08-21T02:26:53.270Z,-1
2017-08-21T02:27:52.857Z,-1
2017-08-21T02:28:52.052Z,-1
2017-08-21T02:29:51.112Z,-1
2017-08-21T02:30:50.311Z,-0.9
2017-08-21T02:31:49.940Z,-0.9
2017-08-21T02:33:47.918Z,-0.9
2017-08-21T02:34:47.494Z,-0.9
2017-08-21T02:35:46.457Z,-0.9
2017-08-21T02:36:45.935Z,-0.9
2017-08-21T02:37:45.137Z,-0.9
2017-08-21T02:38:43.988Z,-0.9
2017-08-21T02:39:43.694Z,-0.9
2017-08-21T02:41:42.057Z,-0.9
2017-08-21T02:42:41.144Z,-0.8
2017-08-21T02:43:40.344Z,-0.8
2017-08-21T02:44:39.818Z,-0.7
2017-08-21T02:45:38.886Z,-0.7
2017-08-21T02:46:38.075Z,-0.8
2017-08-21T02:47:38.222Z,-0.9
2017-08-21T02:49:35.695Z,-0.9
2017-08-21T02:50:35.159Z,-0.9
2017-08-21T02:51:34.136Z,-0.9
2017-08-21T02:52:33.840Z,-1
2017-08-21T02:53:33.031Z,-0.9
2017-08-21T02:54:32.117Z,-0.9
2017-08-21T02:56:30.578Z,-0.7
2017-08-21T02:57:29.774Z,-0.8
2017-08-21T02:58:28.954Z,-0.8
2017-08-21T03:00:27.397Z,-1
2017-08-21T03:03:25.243Z,-0.9
2017-08-21T03:05:23.824Z,-1
2017-08-21T03:06:22.903Z,-1
2017-08-21T03:08:21.490Z,-1.1
2017-08-21T03:09:20.676Z,-1.1
2017-08-21T03:10:19.865Z,-1.1
2017-08-21T03:11:19.053Z,-1.1
2017-08-21T03:12:18.253Z,-1
2017-08-21T03:13:17.084Z,-1.1
2017-08-21T03:14:16.764Z,-1.1
2017-08-21T03:17:14.607Z,-1.2
2017-08-21T03:18:13.673Z,-1.1
2017-08-21T03:20:12.246Z,-1.1
2017-08-21T03:21:11.313Z,-1
2017-08-21T03:22:10.501Z,-1
2017-08-21T03:23:09.581Z,-0.9
2017-08-21T03:26:07.555Z,-1
2017-08-21T03:27:06.518Z,-1.1
2017-08-21T03:28:05.988Z,-1.1
2017-08-21T03:29:05.178Z,-1.1
2017-08-21T03:30:04.276Z,-1
2017-08-21T03:31:03.866Z,-1.1
2017-08-21T03:32:03.076Z,-1
2017-08-21T03:34:01.304Z,-1
2017-08-21T03:35:00.886Z,-1
2017-08-21T03:36:00.080Z,-1
2017-08-21T03:37:58.152Z,-1
2017-08-21T03:38:57.348Z,-1
2017-08-21T03:40:55.816Z,-1
2017-08-21T03:42:54.310Z,-1.1
2017-08-21T03:43:53.500Z,-1.1
2017-08-21T03:44:52.703Z,-1.1
2017-08-21T03:46:51.288Z,-1.1
2017-08-21T03:47:50.241Z,-1.1
2017-08-21T03:50:47.985Z,-1.1
2017-08-21T03:51:47.691Z,-1
2017-08-21T03:53:45.655Z,-1
2017-08-21T03:55:43.993Z,-1
2017-08-21T03:56:43.568Z,-1
2017-08-21T03:57:42.755Z,-1
2017-08-21T03:59:41.338Z,-1
2017-08-21T04:00:40.280Z,-1.1
2017-08-21T04:02:38.858Z,-1.1
2017-08-21T04:04:37.322Z,-1
2017-08-21T04:05:36.278Z,-1
2017-08-21T04:07:34.855Z,-0.9
2017-08-21T04:09:33.331Z,-0.9
2017-08-21T04:10:32.780Z,-0.9
2017-08-21T04:11:31.846Z,-0.8
2017-08-21T04:14:29.823Z,-0.9
2017-08-21T04:15:28.907Z,-1
2017-08-21T04:16:28.100Z,-1
2017-08-21T04:17:27.295Z,-0.9
2017-08-21T04:18:26.256Z,-0.9
2017-08-21T04:19:25.836Z,-0.9
2017-08-21T04:21:23.941Z,-1.1
2017-08-21T04:22:23.138Z,-1.1
2017-08-21T04:23:22.825Z,-1
2017-08-21T04:26:19.964Z,-1
2017-08-21T04:27:19.653Z,-1
2017-08-21T04:31:16.498Z,-1.1
2017-08-21T04:32:15.468Z,-1.1
2017-08-21T04:34:14.048Z,-1.2
2017-08-21T04:35:13.240Z,-1.2
2017-08-21T04:36:12.428Z,-1.2
2017-08-21T04:37:11.494Z,-1.3
2017-08-21T04:38:10.688Z,-1.3
2017-08-21T04:39:09.894Z,-1.3
2017-08-21T04:40:09.472Z,-1.3
2017-08-21T04:41:08.688Z,-1.3
2017-08-21T04:42:07.877Z,-1.5
2017-08-21T04:43:07.077Z,-1.5
2017-08-21T04:44:06.148Z,-1.5
2017-08-21T04:45:05.332Z,-1.6
2017-08-21T04:46:04.537Z,-1.5
2017-08-21T04:47:03.603Z,-1.5
2017-08-21T04:49:01.828Z,-1.6
2017-08-21T04:50:01.542Z,-1.7
2017-08-21T04:51:00.602Z,-1.9
2017-08-21T04:51:59.788Z,-2
2017-08-21T04:52:58.968Z,-2.1
2017-08-21T04:53:58.159Z,-2.1
2017-08-21T04:54:57.352Z,-2.1
2017-08-21T04:55:56.925Z,-2.2
2017-08-21T04:56:55.994Z,-2.2
2017-08-21T04:57:54.947Z,-2.3
2017-08-21T04:58:54.516Z,-2.3
2017-08-21T04:59:53.575Z,-2.1
2017-08-21T05:00:52.765Z,-2.2
2017-08-21T05:01:51.854Z,-2.3
2017-08-21T05:03:50.438Z,-2.5
2017-08-21T05:04:49.647Z,-2.6
2017-08-21T05:05:48.831Z,-2.5
2017-08-21T05:06:48.029Z,-2.5
2017-08-21T05:07:47.082Z,-2.5
2017-08-21T05:09:45.421Z,-2.8
2017-08-21T05:10:44.883Z,-2.6
2017-08-21T05:11:43.844Z,-2.5
2017-08-21T05:12:43.419Z,-2.4
2017-08-21T05:13:42.483Z,-2.4
2017-08-21T05:14:41.648Z,-2.6
2017-08-21T05:15:41.345Z,-2.6
2017-08-21T05:16:40.411Z,-2.8
2017-08-21T05:17:39.600Z,-2.8
2017-08-21T05:18:38.790Z,-2.8
2017-08-21T05:19:37.749Z,-2.7
2017-08-21T05:20:37.325Z,-2.5
2017-08-21T05:21:36.280Z,-2.5
2017-08-21T05:22:35.779Z,-2.5
2017-08-21T05:23:34.842Z,-2.5
2017-08-21T05:24:33.906Z,-2.5
2017-08-21T05:25:33.102Z,-2.6
2017-08-21T05:26:32.083Z,-2.6
2017-08-21T05:27:31.539Z,-2.6
2017-08-21T05:28:31.062Z,-2.7
2017-08-21T05:30:29.589Z,-2.6
2017-08-21T05:31:28.667Z,-2.6
2017-08-21T05:32:27.866Z,-2.7
2017-08-21T05:33:26.822Z,-2.9
2017-08-21T05:34:26.399Z,-2.9
2017-08-21T05:36:24.971Z,-3.2
2017-08-21T05:37:24.033Z,-3.3
2017-08-21T05:38:23.223Z,-3.4
2017-08-21T05:39:22.281Z,-3.4
2017-08-21T05:40:21.472Z,-3.6
2017-08-21T05:41:20.676Z,-3.6
2017-08-21T05:42:19.870Z,-3.4
2017-08-21T05:43:19.052Z,-3.6
2017-08-21T05:44:18.743Z,-3.7
2017-08-21T05:45:17.930Z,-3.9
2017-08-21T05:46:16.998Z,-3.8
2017-08-21T05:47:16.195Z,-3.8
2017-08-21T05:48:15.395Z,-3.9
2017-08-21T05:49:14.459Z,-4
2017-08-21T05:51:12.790Z,-3.3
2017-08-21T05:52:12.365Z,-3.4
2017-08-21T05:53:11.444Z,-3.6
2017-08-21T05:54:10.635Z,-3.8
2017-08-21T05:55:09.834Z,-3.9
2017-08-21T05:56:08.916Z,-3.5
2017-08-21T05:57:08.620Z,-3.4
2017-08-21T05:58:07.698Z,-3.4
2017-08-21T05:59:06.776Z,-3.4
2017-08-21T06:00:05.959Z,-3.7
2017-08-21T06:01:05.039Z,-3.8
2017-08-21T06:02:04.760Z,-4
2017-08-21T06:03:03.939Z,-3.8
2017-08-21T06:04:03.152Z,-3.9
2017-08-21T06:05:02.106Z,-4.1
2017-08-21T06:06:01.310Z,-4.1
2017-08-21T06:07:00.505Z,-4.2
2017-08-21T06:08:58.978Z,-4.1
2017-08-21T06:09:58.050Z,-4.1
2017-08-21T06:10:57.625Z,-4.1
2017-08-21T06:11:56.816Z,-4.1
2017-08-21T06:12:55.894Z,-4.1
2017-08-21T06:13:54.961Z,-4.2
2017-08-21T06:14:54.421Z,-4
2017-08-21T06:15:53.484Z,-4
2017-08-21T06:16:53.178Z,-4
2017-08-21T06:17:52.375Z,-4
2017-08-21T06:18:51.564Z,-4.1
2017-08-21T06:19:50.515Z,-4
2017-08-21T06:20:49.714Z,-4
2017-08-21T06:21:48.938Z,-4
2017-08-21T06:22:48.137Z,-4.1
2017-08-21T06:23:47.851Z,-4.3
2017-08-21T06:24:46.803Z,-4.4
2017-08-21T06:25:45.875Z,-4.4
2017-08-21T06:27:44.347Z,-4.8
2017-08-21T06:28:44.048Z,-4.6
2017-08-21T06:29:43.233Z,-4.5
2017-08-21T06:30:42.445Z,-4.4
2017-08-21T06:31:41.290Z,-4.7
2017-08-21T06:32:40.978Z,-4.7
2017-08-21T06:33:40.169Z,-4.7
2017-08-21T06:34:39.358Z,-4.9
2017-08-21T06:35:38.545Z,-4.8
2017-08-21T06:36:37.741Z,-4.6
2017-08-21T06:37:36.821Z,-4.5
2017-08-21T06:39:35.403Z,-4.7
2017-08-21T06:40:34.486Z,-4.9
2017-08-21T06:41:33.670Z,-4.8
2017-08-21T06:44:31.634Z,-4.8
2017-08-21T06:45:30.694Z,-4.9
2017-08-21T06:46:29.639Z,-5
2017-08-21T06:47:29.101Z,-5.1
2017-08-21T06:47:59.365Z,-5.1
2017-08-21T06:48:30.250Z,-5
2017-08-21T06:50:27.314Z,-4.8
2017-08-21T06:51:26.511Z,-4.7
2017-08-21T06:53:25.102Z,-4.7
2017-08-21T06:55:23.194Z,-4.8
2017-08-21T06:56:22.270Z,-4.6
2017-08-21T06:57:21.860Z,-4.6
2017-08-21T06:58:21.047Z,-4.8
2017-08-21T06:58:51.550Z,-4.8
2017-08-21T06:59:21.590Z,-4.7
2017-08-21T06:59:52.592Z,-4.7
2017-08-21T07:00:23.095Z,-4.8
2017-08-21T07:00:53.469Z,-4.8
2017-08-21T07:01:23.979Z,-4.7
2017-08-21T07:01:54.490Z,-4.7
2017-08-21T07:03:17.344Z,-4.8
2017-08-21T07:04:16.300Z,-4.9
2017-08-21T07:05:15.762Z,-5
2017-08-21T07:06:14.836Z,-4.8
2017-08-21T07:07:14.295Z,-4.8
2017-08-21T07:08:13.496Z,-4.8
2017-08-21T07:09:12.580Z,-4.7
2017-08-21T07:10:12.278Z,-4.6
2017-08-21T07:11:11.486Z,-4.4
2017-08-21T07:12:10.327Z,-4.5
2017-08-21T07:13:10.016Z,-4.5
2017-08-21T07:14:09.098Z,-4.2
2017-08-21T07:15:08.300Z,-4.4
2017-08-21T07:16:07.492Z,-4.4
2017-08-21T07:17:07.066Z,-4.4
2017-08-21T07:19:05.643Z,-4.7
2017-08-21T07:21:04.112Z,-4.7
2017-08-21T07:22:03.191Z,-4.9
2017-08-21T07:24:01.666Z,-4.8
2017-08-21T07:25:01.118Z,-4.9
2017-08-21T07:26:00.327Z,-4.8
2017-08-21T07:26:59.514Z,-4.9
2017-08-21T07:27:58.713Z,-4.4
2017-08-21T07:29:57.173Z,-3.9
2017-08-21T07:30:56.869Z,-3.8
2017-08-21T07:31:56.081Z,-3.5
2017-08-21T07:32:55.274Z,-3.5
2017-08-21T07:33:54.479Z,-3.3
2017-08-21T07:34:53.669Z,-3.3
2017-08-21T07:36:52.148Z,-3.5
2017-08-21T07:37:51.261Z,-3.7
2017-08-21T07:38:50.953Z,-3.9
2017-08-21T07:39:50.155Z,-4.1
2017-08-21T07:40:49.355Z,-4.1
2017-08-21T07:41:19.739Z,-4.1
2017-08-21T07:43:46.757Z,-4.5
2017-08-21T07:45:45.724Z,-4.7
2017-08-21T07:46:44.675Z,-4.8
2017-08-21T07:47:44.371Z,-5
2017-08-21T07:48:43.577Z,-4.8
2017-08-21T07:49:42.528Z,-4.7
2017-08-21T07:52:40.384Z,-4.7
2017-08-21T07:53:39.577Z,-4.7
2017-08-21T07:54:39.273Z,-4.7
2017-08-21T07:57:36.618Z,-4.7
2017-08-21T07:58:36.193Z,-4.7
2017-08-21T07:59:35.384Z,-4.6
2017-08-21T08:00:34.459Z,-4.6
2017-08-21T08:01:33.911Z,-4.6
2017-08-21T08:02:33.107Z,-4.4
2017-08-21T08:03:32.309Z,-4.4
2017-08-21T08:04:31.880Z,-4.5
2017-08-21T08:05:31.075Z,-4.2
2017-08-21T08:06:30.273Z,-4.2
2017-08-21T08:07:29.468Z,-4.5
2017-08-21T08:08:29.153Z,-4.6
2017-08-21T08:10:27.107Z,-4.1
2017-08-21T08:11:26.693Z,-3.9
2017-08-21T08:13:25.164Z,-3.5
2017-08-21T08:14:24.241Z,-3.4
2017-08-21T08:15:23.957Z,-3.4
2017-08-21T08:16:23.156Z,-3.4
2017-08-21T08:18:21.630Z,-3.2
2017-08-21T08:19:20.836Z,-3.1
2017-08-21T08:21:19.294Z,-3.1
2017-08-21T08:22:18.761Z,-3
2017-08-21T08:23:17.841Z,-2.9
2017-08-21T08:25:16.805Z,-3.1
2017-08-21T08:26:15.759Z,-3
2017-08-21T08:27:15.332Z,-3.6
2017-08-21T08:28:14.424Z,-3.6
2017-08-21T08:29:13.618Z,-3.7
2017-08-21T08:30:13.227Z,-3.5
2017-08-21T08:32:11.674Z,-3.1
2017-08-21T08:34:10.122Z,-2.6
2017-08-21T08:35:09.357Z,-2.5
2017-08-21T08:36:08.430Z,-2.5
2017-08-21T08:37:08.006Z,-2.6
2017-08-21T08:38:06.844Z,-2.7
2017-08-21T08:39:06.452Z,-2.9
2017-08-21T08:40:06.031Z,-3
2017-08-21T08:41:05.112Z,-2.8
2017-08-21T08:42:04.075Z,-2.7
2017-08-21T08:43:03.657Z,-2.4
2017-08-21T08:44:02.512Z,-2.3
2017-08-21T08:45:01.977Z,-2.3
2017-08-21T08:46:01.682Z,-2.7
2017-08-21T08:48:00.022Z,-3.2
2017-08-21T08:49:58.480Z,-3.4
2017-08-21T08:50:58.173Z,-3.6
2017-08-21T08:52:56.637Z,-3.4
2017-08-21T08:53:55.886Z,-3.4
2017-08-21T08:54:55.080Z,-3.2
2017-08-21T08:55:54.557Z,-3
2017-08-21T08:56:53.525Z,-2.8
2017-08-21T08:57:53.002Z,-2.7
2017-08-21T08:58:52.454Z,-2.7
2017-08-21T08:59:51.650Z,-2.9
2017-08-21T09:00:50.853Z,-3.1
2017-08-21T09:01:50.561Z,-3.1
2017-08-21T09:03:48.920Z,-3.1
2017-08-21T09:04:47.879Z,-3.2
2017-08-21T09:06:46.726Z,-3.1
2017-08-21T09:07:45.680Z,-3.2
2017-08-21T09:08:45.145Z,-3
2017-08-21T09:09:44.847Z,-3
2017-08-21T09:10:44.040Z,-2.9
2017-08-21T09:11:43.001Z,-3
2017-08-21T09:12:42.693Z,-3.3
2017-08-21T09:13:41.657Z,-3.2
2017-08-21T09:15:40.619Z,-3.3
2017-08-21T09:17:39.196Z,-3.3
2017-08-21T09:18:09.710Z,-3.3
2017-08-21T09:18:40.099Z,-3.4
2017-08-21T09:19:10.602Z,-3.4
2017-08-21T09:19:41.106Z,-3.3
2017-08-21T09:20:11.396Z,-3.3
2017-08-21T09:23:34.924Z,-3.2
2017-08-21T09:24:34.116Z,-3.2
2017-08-21T09:25:33.076Z,-3.2
2017-08-21T09:26:32.792Z,-3.3
2017-08-21T09:28:31.385Z,-3.3
2017-08-21T09:31:28.998Z,-2.9
2017-08-21T09:33:27.973Z,-2.6
2017-08-21T09:34:27.068Z,-2.5
2017-08-21T09:37:25.041Z,-2.4
2017-08-21T09:38:24.113Z,-2.3
2017-08-21T09:39:23.809Z,-2.2
2017-08-21T09:40:22.863Z,-2.2
2017-08-21T09:41:22.440Z,-2.2
2017-08-21T09:42:21.523Z,-2.2
2017-08-21T09:43:20.862Z,-2.1
2017-08-21T09:44:19.938Z,-2.2
2017-08-21T09:45:19.524Z,-2.2
2017-08-21T09:46:18.363Z,-2.3
2017-08-21T09:47:17.955Z,-2.5
2017-08-21T09:48:17.542Z,-2.4
2017-08-21T09:49:16.731Z,-2.4
2017-08-21T09:50:15.809Z,-2.6
2017-08-21T09:53:14.283Z,-2.8
2017-08-21T09:55:12.744Z,-2.6
2017-08-21T09:56:11.821Z,-2.6
2017-08-21T09:58:10.414Z,-2.4
2017-08-21T10:00:09.011Z,-2.4
2017-08-21T10:01:08.480Z,-2.4
2017-08-21T10:02:07.321Z,-2.3
2017-08-21T10:05:05.677Z,-2.6
2017-08-21T10:06:04.752Z,-2.6
2017-08-21T10:10:02.115Z,-2.2
2017-08-21T10:10:32.523Z,-2.2
2017-08-21T10:12:00.912Z,-2.3
2017-08-21T10:12:59.996Z,-2.2
2017-08-21T10:18:56.015Z,-2.4
2017-08-21T10:19:55.709Z,-2.4
2017-08-21T10:20:54.903Z,-2.4
2017-08-21T10:23:52.878Z,-2.3
2017-08-21T10:24:51.833Z,-2.3
2017-08-21T10:25:51.403Z,-2.2
2017-08-21T10:26:50.600Z,-2.3
2017-08-21T10:27:49.446Z,-2.2
2017-08-21T10:29:48.422Z,-2.2
2017-08-21T10:30:48.107Z,-2.3
2017-08-21T10:31:47.210Z,-2.2
2017-08-21T10:32:46.287Z,-2.1
2017-08-21T10:34:45.373Z,-2
2017-08-21T10:35:44.458Z,-1.9
2017-08-21T10:36:43.551Z,-1.8
2017-08-21T10:37:43.133Z,-1.6
2017-08-21T10:38:42.205Z,-1.6
2017-08-21T10:39:41.664Z,-1.6
2017-08-21T10:41:40.008Z,-1.8
2017-08-21T10:42:39.697Z,-2
2017-08-21T10:45:37.429Z,-2.1
2017-08-21T10:48:35.789Z,-2.1
2017-08-21T10:49:34.747Z,-2.1
2017-08-21T10:50:34.438Z,-2.1
2017-08-21T10:51:33.531Z,-2.2
2017-08-21T10:53:32.393Z,-2.3
2017-08-21T10:54:31.596Z,-2.3
2017-08-21T10:55:30.790Z,-2.2
2017-08-21T10:56:30.500Z,-2.2
2017-08-21T10:58:28.972Z,-2.2
2017-08-21T10:59:28.047Z,-2.1
2017-08-21T11:00:27.506Z,-2
2017-08-21T11:01:26.696Z,-2
2017-08-21T11:02:26.276Z,-2
2017-08-21T11:03:25.356Z,-2
2017-08-21T11:04:24.701Z,-2
2017-08-21T11:05:24.284Z,-1.9
2017-08-21T11:05:54.679Z,-1.9
2017-08-21T11:06:25.061Z,-1.8
2017-08-21T11:06:55.560Z,-1.8
2017-08-21T11:07:25.954Z,-1.8
2017-08-21T11:08:22.004Z,-1.7
2017-08-21T11:10:20.847Z,-1.8
2017-08-21T11:11:20.431Z,-1.7
2017-08-21T11:12:19.641Z,-1.7
2017-08-21T11:13:18.599Z,-1.7
2017-08-21T11:14:18.293Z,-1.7
2017-08-21T11:15:17.360Z,-1.8
2017-08-21T11:17:15.944Z,-1.8
2017-08-21T11:18:15.526Z,-1.8
2017-08-21T11:19:14.501Z,-1.8
2017-08-21T11:20:14.216Z,-1.8
2017-08-21T11:21:13.299Z,-1.7
2017-08-21T11:22:12.770Z,-1.9
2017-08-21T11:23:11.956Z,-1.9
2017-08-21T11:27:09.197Z,-2
2017-08-21T11:29:08.272Z,-2
2017-08-21T11:31:06.863Z,-1.8
2017-08-21T11:32:06.052Z,-1.8
2017-08-21T11:33:05.735Z,-1.8
2017-08-21T11:34:04.924Z,-1.7
2017-08-21T11:35:03.891Z,-1.7
2017-08-21T11:37:02.980Z,-1.6
2017-08-21T11:38:02.070Z,-1.5
2017-08-21T11:38:32.584Z,-1.5
2017-08-21T11:39:02.855Z,-1.6
2017-08-21T11:40:00.948Z,-1.6
2017-08-21T11:41:00.033Z,-1.6
2017-08-21T11:41:59.616Z,-1.6
2017-08-21T11:42:58.820Z,-1.8
2017-08-21T11:43:57.894Z,-1.7
2017-08-21T11:44:57.598Z,-1.7
2017-08-21T11:45:56.677Z,-1.8
2017-08-21T11:46:56.397Z,-2
2017-08-21T11:47:55.472Z,-2
2017-08-21T11:48:55.181Z,-1.9
2017-08-21T11:49:54.382Z,-1.9
2017-08-21T11:51:52.849Z,-1.8
2017-08-21T11:52:52.435Z,-1.8
2017-08-21T11:53:51.621Z,-1.8
2017-08-21T11:54:50.823Z,-1.7
2017-08-21T11:55:50.406Z,-1.8
2017-08-21T11:56:49.356Z,-1.7
2017-08-21T11:58:48.200Z,-1.3
2017-08-21T12:00:46.935Z,-1.4
2017-08-21T12:01:46.391Z,-1.4
2017-08-21T12:02:45.851Z,-1.4
2017-08-21T12:03:45.050Z,-1.5
2017-08-21T12:04:44.137Z,-1.7
2017-08-21T12:05:43.585Z,-1.8
2017-08-21T12:06:43.152Z,-1.8
2017-08-21T12:08:41.746Z,-1.7
2017-08-21T12:09:40.813Z,-1.5
2017-08-21T12:10:40.515Z,-1.5
2017-08-21T12:11:39.702Z,-1.6
2017-08-21T12:12:39.275Z,-1.5
2017-08-21T12:13:38.230Z,-1.6
2017-08-21T12:16:36.604Z,-1.6
2017-08-21T12:17:35.804Z,-1.6
2017-08-21T12:18:35.502Z,-1.6
2017-08-21T12:19:34.577Z,-1.6
2017-08-21T12:20:33.535Z,-1.7
2017-08-21T12:24:31.279Z,-1.6
2017-08-21T12:25:30.230Z,-1.6
2017-08-21T12:26:29.934Z,-1.5
2017-08-21T12:27:29.538Z,-1.4
2017-08-21T12:28:28.733Z,-1.5
2017-08-21T12:29:27.815Z,-1.5
2017-08-21T12:31:26.907Z,-1.3
2017-08-21T12:32:25.999Z,-1.4
2017-08-21T12:33:25.461Z,-1.3
2017-08-21T12:34:24.558Z,-1.4
2017-08-21T12:35:24.132Z,-1.5
2017-08-21T12:36:23.219Z,-1.4
2017-08-21T12:37:22.919Z,-1.4
2017-08-21T12:38:22.121Z,-1.3
2017-08-21T12:39:21.193Z,-1.4
2017-08-21T12:40:20.880Z,-1.5
2017-08-21T12:41:19.959Z,-1.4
2017-08-21T12:42:19.529Z,-1.4
2017-08-21T12:43:18.480Z,-1.4
2017-08-21T12:44:18.048Z,-1.4
2017-08-21T12:45:17.111Z,-1.4
2017-08-21T12:46:16.713Z,-1.3
2017-08-21T12:47:15.923Z,-1.3
2017-08-21T12:47:46.190Z,-1.3
2017-08-21T12:49:14.841Z,-1.3
2017-08-21T12:50:13.798Z,-1.3
2017-08-21T12:51:13.370Z,-1.2
2017-08-21T12:52:12.944Z,-1.2
2017-08-21T12:53:12.168Z,-1.3
2017-08-21T12:54:11.244Z,-1.3
2017-08-21T12:55:10.458Z,-1.3
2017-08-21T12:56:10.165Z,-1.3
2017-08-21T12:57:09.349Z,-1.4
2017-08-21T12:58:09.057Z,-1.3
2017-08-21T12:59:08.254Z,-1.3
2017-08-21T13:00:07.445Z,-1.3
2017-08-21T13:01:07.144Z,-1.4
2017-08-21T13:02:06.363Z,-1.4
2017-08-21T13:03:05.553Z,-1.3
2017-08-21T13:04:04.755Z,-1.3
2017-08-21T13:05:04.220Z,-1.3
2017-08-21T13:06:03.292Z,-1.3
2017-08-21T13:07:02.638Z,-1.3
2017-08-21T13:08:02.228Z,-1.3
2017-08-21T13:09:01.412Z,-1.4
2017-08-21T13:10:01.104Z,-1.2
2017-08-21T13:11:00.177Z,-1.1
2017-08-21T13:12:59.133Z,-0.7
2017-08-21T13:13:58.210Z,-0.5
2017-08-21T13:14:57.674Z,-0.3
2017-08-21T13:15:56.510Z,-0.2
2017-08-21T13:16:56.102Z,-0.3
2017-08-21T13:17:55.669Z,-0.5
2017-08-21T13:18:54.733Z,-0.7
2017-08-21T13:19:54.319Z,-0.8
2017-08-21T13:20:53.886Z,-1.1
2017-08-21T13:21:53.065Z,-1.2
2017-08-21T13:22:52.142Z,-1.2
2017-08-21T13:23:51.714Z,-1
2017-08-21T13:25:50.193Z,-0.5
2017-08-21T13:26:49.769Z,-0.3
2017-08-21T13:27:49.238Z,-0.2
2017-08-21T13:28:48.325Z,-0.2
2017-08-21T13:30:47.303Z,-0.4
2017-08-21T13:31:46.379Z,-0.5
2017-08-21T13:32:45.850Z,-0.5
2017-08-21T13:33:45.312Z,-0.4
2017-08-21T13:34:44.385Z,-0.4
2017-08-21T13:35:43.963Z,-0.5
2017-08-21T13:36:43.036Z,-0.7
2017-08-21T13:37:42.628Z,-0.7
2017-08-21T13:38:41.822Z,-0.7
2017-08-21T13:40:40.913Z,-0.9
2017-08-21T13:41:39.866Z,-0.9
2017-08-21T13:42:39.574Z,-0.9
2017-08-21T13:43:38.767Z,-1.1
2017-08-21T13:44:38.255Z,-1.2
2017-08-21T13:45:37.855Z,-1.2
2017-08-21T13:46:36.992Z,-1.2
2017-08-21T13:48:35.454Z,-1.1
2017-08-21T13:49:34.943Z,-1.2
2017-08-21T13:50:34.015Z,-1.2
2017-08-21T13:51:33.364Z,-1.2
2017-08-21T13:52:32.951Z,-1.1
2017-08-21T13:53:32.026Z,-1.1
2017-08-21T13:54:31.495Z,-1
2017-08-21T13:55:31.193Z,-1
2017-08-21T13:56:30.281Z,-1
2017-08-21T13:57:29.874Z,-0.9
2017-08-21T13:58:28.948Z,-0.9
2017-08-21T13:59:28.412Z,-1
2017-08-21T14:00:27.508Z,-1
2017-08-21T14:01:27.215Z,-1
2017-08-21T14:02:26.396Z,-1.1
2017-08-21T14:03:25.863Z,-1.1
2017-08-21T14:04:25.046Z,-1
2017-08-21T14:05:24.387Z,-1
2017-08-21T14:06:23.856Z,-0.8
2017-08-21T14:07:23.321Z,-0.9
2017-08-21T14:08:22.895Z,-0.9
2017-08-21T14:09:21.967Z,-0.8
2017-08-21T14:10:21.152Z,-0.7
2017-08-21T14:11:20.842Z,-0.5
2017-08-21T14:12:19.914Z,-0.4
2017-08-21T14:14:18.896Z,-0.2
2017-08-21T14:15:17.850Z,-0.2
2017-08-21T14:16:17.318Z,-0.1
2017-08-21T14:17:17.018Z,0
2017-08-21T14:19:15.494Z,0
2017-08-21T14:20:14.832Z,0.1
2017-08-21T14:21:14.528Z,0
2017-08-21T14:23:12.990Z,-0.4
2017-08-21T14:24:12.698Z,-0.3
2017-08-21T14:25:11.779Z,-0.2
2017-08-21T14:26:11.480Z,0
2017-08-21T14:27:10.667Z,0
2017-08-21T14:28:09.859Z,-0.1
2017-08-21T14:29:09.558Z,0
2017-08-21T14:30:08.650Z,0.1
2017-08-21T14:31:08.227Z,0.1
2017-08-21T14:32:07.299Z,0.1
2017-08-21T14:33:06.876Z,0.1
2017-08-21T14:34:05.841Z,0.1
2017-08-21T14:35:05.313Z,0.1
2017-08-21T14:36:04.662Z,0.1
2017-08-21T14:37:04.377Z,0
2017-08-21T14:38:03.615Z,0.2
2017-08-21T14:39:03.210Z,0.2
2017-08-21T14:40:02.168Z,0.1
2017-08-21T14:41:01.671Z,0.1
2017-08-21T14:42:01.253Z,0.2
2017-08-21T14:43:00.829Z,0.1
2017-08-21T14:44:00.043Z,0.1
2017-08-21T14:44:58.993Z,0.2
2017-08-21T14:45:58.721Z,0.2
2017-08-21T14:46:58.758Z,0.1
2017-08-21T14:47:57.329Z,0.2
2017-08-21T14:48:57.030Z,0.1
2017-08-21T14:49:56.108Z,0.1
2017-08-21T14:50:55.684Z,0.1
2017-08-21T14:51:54.640Z,0.2
2017-08-21T14:52:54.087Z,0.1
2017-08-21T14:53:53.421Z,0
2017-08-21T14:54:53.267Z,0.1
2017-08-21T14:55:52.723Z,0.1
2017-08-21T14:56:51.799Z,0.2
2017-08-21T14:57:51.499Z,0.4
2017-08-21T14:58:50.457Z,0.5
2017-08-21T14:59:50.146Z,0.5
2017-08-21T15:00:49.095Z,0.4
2017-08-21T15:01:48.456Z,0.3
2017-08-21T15:02:48.045Z,0.3
2017-08-21T15:03:47.623Z,0.4
2017-08-21T15:04:47.326Z,0.5
2017-08-21T15:05:46.408Z,0.4
2017-08-21T15:06:45.863Z,0.3
2017-08-21T15:07:44.942Z,0.2
2017-08-21T15:08:15.093Z,0.2
2017-08-21T15:08:45.982Z,0.4
2017-08-21T15:09:16.362Z,0.4
2017-08-21T15:10:43.115Z,0.2
2017-08-21T15:11:42.698Z,0.2
2017-08-21T15:12:42.290Z,0.2
2017-08-21T15:13:41.389Z,0.1
2017-08-21T15:14:40.843Z,0.3
2017-08-21T15:15:40.191Z,0.3
2017-08-21T15:16:39.773Z,0.1
2017-08-21T15:18:38.365Z,-0.1
2017-08-21T15:19:37.831Z,-0.4
2017-08-21T15:20:37.422Z,-0.5
2017-08-21T15:21:36.511Z,-0.3
2017-08-21T15:24:34.992Z,-0.5
2017-08-21T15:25:34.186Z,-0.5
2017-08-21T15:26:33.654Z,-0.5
2017-08-21T15:27:32.496Z,-0.4
2017-08-21T15:28:32.080Z,-0.4
2017-08-21T15:29:31.765Z,-0.4
2017-08-21T15:30:30.834Z,-0.4
2017-08-21T15:31:30.538Z,-0.8
2017-08-21T15:32:29.611Z,-1
2017-08-21T15:33:29.302Z,-1.2
2017-08-21T15:34:28.531Z,-1.1
2017-08-21T15:35:28.105Z,-1.1
2017-08-21T15:36:27.314Z,-0.8
2017-08-21T15:37:26.890Z,-0.6
2017-08-21T15:38:26.091Z,-0.4
2017-08-21T15:39:25.799Z,-0.4
2017-08-21T15:40:24.871Z,-0.4
2017-08-21T15:41:24.566Z,-0.3
2017-08-21T15:42:23.764Z,-0.3
2017-08-21T15:43:22.961Z,-0.3
2017-08-21T15:44:22.543Z,-0.5
2017-08-21T15:45:21.623Z,-0.7
2017-08-21T15:46:21.199Z,-0.7
2017-08-21T15:47:20.763Z,-0.8
2017-08-21T15:48:20.235Z,-0.8
2017-08-21T15:51:18.210Z,-0.6
2017-08-21T15:52:17.785Z,-0.6
2017-08-21T15:53:16.982Z,-0.6
2017-08-21T15:54:16.053Z,-0.4
2017-08-21T15:55:15.641Z,-0.3
2017-08-21T15:56:15.356Z,-0.4
2017-08-21T15:59:13.343Z,-0.5
2017-08-21T16:00:13.101Z,-0.6
2017-08-21T16:01:12.296Z,-0.5
2017-08-21T16:02:11.254Z,-0.6
2017-08-21T16:03:10.835Z,-0.6
2017-08-21T16:04:09.924Z,-0.5